Aérodrome :
LOGIN :

S'inscrire | Disclaimer

   EN    FR    IT 

 










Légende :    VFR   VFR Marginal   IFR   IFR Intensif   IFR Très Intensif
Visi : 
Plafond : 
>= 8 km
>= 3000ft
5 à 8 km
1000 à 3000 ft
1500m à 5 km
500 à 1000 ft
800 à 1500m
200 à 500 ft
< 800m
< 200 ft
Symboles :   Orages  Brouillard  Fortes neiges  Fortes précipitations  Vent > 20 kt
SIGMETs :   Divers  Orages  Givrage  Turbulence  Onde Orograph.  Cendres Volcan.







- Altitude de l'aérodrome : 50 ft
- Code IATA : KOI
- Voir les cartes d'approche


EGPA - Kirkwall

DERNIER METAR :
  • 262150Z AUTO 27023G33KT 8000 OVC006/// 09/08 Q1024

METARs EXPIRÉS :
  • 262120Z AUTO 27023KT 9999 OVC007/// 09/08 Q1024
  • 262050Z AUTO 27024KT 9999 OVC006/// 09/08 Q1024
  • 262020Z AUTO 27025KT 9999 OVC004/// 09/08 Q1023
  • 261950Z AUTO 27028KT //// ///////// 09/08 Q1023
  • 261920Z 27024KT 9000 -SHRA SCT004 BKN008 09/08 Q1023

TAF TAF EGPA
Valide du 26 à 21h jusqu'au 27 à 06h UTC


261958Z 2621/2706 26020KT 9999 SCT005 BKN012
TEMPO 2621/2706 25022G33KT 7000 -RA BKN007
PROB40
TEMPO 2621/2704 4000 DZ BKN005
BECMG 2704/2706 SCT010 BKN020
Pas de NOTAMs connus pour ce terrain.



MET'MAP, la Météo Aéronautique d'un coup d'oeil ! - Copyright ORBIFLY Décembre 2007 - Disclaimer

ORBIFLY MET'MAP TEAM :

Programmation & Développement : Alexandra Zaïnal
Conception & Développement : Baudouin d'Aumeries
Co-Programmation & Développement : Marc-Olivier Méhu
Soutien technique & logistique : Manuel Goepfert

Contact : metmap@orbifly.com




SOURCES & CREDITS :

   NOAA